createdAt,value
2023-01-11T00:01:20.287Z,100297.84
2023-01-11T00:03:46.944Z,100293.25
2023-01-11T00:06:13.646Z,100292.34
2023-01-11T00:08:40.080Z,100295.78
2023-01-11T00:11:13.671Z,100304.16
2023-01-11T00:13:40.163Z,100297.97
2023-01-11T00:16:07.904Z,100297.41
2023-01-11T00:18:34.818Z,100297.78
2023-01-11T00:21:05.710Z,100303.66
2023-01-11T00:23:33.257Z,100294.00
2023-01-11T00:26:02.619Z,100303.56
2023-01-11T00:28:29.045Z,100299.25
2023-01-11T00:30:55.565Z,100298.03
2023-01-11T00:33:22.024Z,100304.53
2023-01-11T00:35:51.323Z,100297.19
2023-01-11T00:38:38.635Z,100298.72
2023-01-11T00:41:25.710Z,100289.75
2023-01-11T00:44:11.098Z,100299.00
2023-01-11T00:46:56.348Z,100299.28
2023-01-11T00:49:23.035Z,100306.31
2023-01-11T00:51:49.446Z,100312.09
2023-01-11T00:54:15.975Z,100317.41
2023-01-11T00:56:42.423Z,100322.50
2023-01-11T00:59:09.120Z,100322.00
2023-01-11T01:01:36.150Z,100326.03
2023-01-11T01:04:03.011Z,100320.81
2023-01-11T01:06:29.568Z,100324.53
2023-01-11T01:08:56.371Z,100323.41
2023-01-11T01:11:23.341Z,100330.19
2023-01-11T01:14:08.488Z,100329.22
2023-01-11T01:16:35.000Z,100328.88
2023-01-11T01:19:01.666Z,100325.69
2023-01-11T01:21:28.115Z,100326.34
2023-01-11T01:23:54.944Z,100321.22
2023-01-11T01:26:21.795Z,100320.47
2023-01-11T01:28:48.764Z,100324.41
2023-01-11T01:31:15.252Z,100338.16
2023-01-11T01:33:41.899Z,100335.53
2023-01-11T01:36:08.761Z,100344.91
2023-01-11T01:38:35.326Z,100340.50
2023-01-11T01:41:01.783Z,100325.38
2023-01-11T01:43:54.017Z,100329.41
2023-01-11T01:46:22.872Z,100329.13
2023-01-11T01:49:02.364Z,100335.31
2023-01-11T01:51:33.664Z,100328.66
2023-01-11T01:54:04.966Z,100328.56
2023-01-11T01:57:01.959Z,100329.88
2023-01-11T01:59:30.300Z,100328.00
2023-01-11T02:01:57.347Z,100331.56
2023-01-11T02:04:29.769Z,100334.94
2023-01-11T02:07:02.023Z,100329.81
2023-01-11T02:09:34.930Z,100323.03
2023-01-11T02:12:02.474Z,100325.88
2023-01-11T02:14:29.488Z,100321.25
2023-01-11T02:16:55.990Z,100320.13
2023-01-11T02:19:45.557Z,100322.66
2023-01-11T02:22:46.598Z,100316.28
2023-01-11T02:25:20.703Z,100328.56
2023-01-11T02:28:10.933Z,100319.66
2023-01-11T02:30:47.990Z,100317.31
2023-01-11T02:33:24.266Z,100315.09
2023-01-11T02:35:57.887Z,100315.63
2023-01-11T02:38:44.903Z,100315.34
2023-01-11T02:41:26.945Z,100325.03
2023-01-11T02:44:29.928Z,100316.47
2023-01-11T02:47:02.843Z,100309.06
2023-01-11T02:49:50.442Z,100303.34
2023-01-11T02:52:29.395Z,100311.97
2023-01-11T02:54:57.967Z,100310.09
2023-01-11T02:57:25.764Z,100309.06
2023-01-11T02:59:54.957Z,100316.47
2023-01-11T03:02:21.493Z,100320.78
2023-01-11T03:04:47.994Z,100321.25
2023-01-11T03:07:41.050Z,100314.25
2023-01-11T03:10:18.780Z,100317.88
2023-01-11T03:12:52.365Z,100315.81
2023-01-11T03:15:47.397Z,100306.25
2023-01-11T03:18:35.216Z,100310.91
2023-01-11T03:21:24.378Z,100312.44
2023-01-11T03:24:12.511Z,100318.16
2023-01-11T03:27:23.775Z,100321.06
2023-01-11T03:30:15.775Z,100317.59
2023-01-11T03:32:48.787Z,100315.81
2023-01-11T03:35:26.272Z,100317.50
2023-01-11T03:38:02.692Z,100305.50
2023-01-11T03:40:36.618Z,100303.25
2023-01-11T03:43:11.489Z,100300.63
2023-01-11T03:45:50.292Z,100296.59
2023-01-11T03:48:29.175Z,100294.25
2023-01-11T03:50:56.523Z,100298.88
2023-01-11T03:53:24.049Z,100293.84
2023-01-11T03:55:56.639Z,100300.59
2023-01-11T03:58:25.441Z,100306.31
2023-01-11T04:00:52.077Z,100304.34
2023-01-11T04:03:18.995Z,100304.91
2023-01-11T04:05:49.001Z,100307.94
2023-01-11T04:08:15.388Z,100308.75
2023-01-11T04:10:41.780Z,100301.72
2023-01-11T04:13:08.242Z,100296.88
2023-01-11T04:15:35.738Z,100300.88
2023-01-11T04:18:05.763Z,100296.72
2023-01-11T04:20:33.868Z,100302.28
2023-01-11T04:23:00.365Z,100299.06
2023-01-11T04:25:26.996Z,100299.81
2023-01-11T04:27:53.747Z,100301.16
2023-01-11T04:30:20.509Z,100304.56
2023-01-11T04:32:46.981Z,100296.66
2023-01-11T04:35:13.782Z,100296.47
2023-01-11T04:37:40.197Z,100295.63
2023-01-11T04:40:07.323Z,100300.84
2023-01-11T04:42:33.978Z,100296.84
2023-01-11T04:45:00.424Z,100293.09
2023-01-11T04:47:26.928Z,100293.09
2023-01-11T04:49:53.361Z,100295.63
2023-01-11T04:52:20.632Z,100298.16
2023-01-11T04:54:48.601Z,100299.09
2023-01-11T04:57:16.964Z,100296.97
2023-01-11T04:59:43.506Z,100301.94
2023-01-11T05:02:09.939Z,100299.19
2023-01-11T05:04:36.399Z,100299.19
2023-01-11T05:07:03.058Z,100300.63
2023-01-11T05:09:29.579Z,100295.38
2023-01-11T05:11:56.269Z,100297.72
2023-01-11T05:14:22.976Z,100293.88
2023-01-11T05:16:49.564Z,100296.28
2023-01-11T05:19:16.194Z,100306.53
2023-01-11T05:21:42.771Z,100301.28
2023-01-11T05:24:12.338Z,100308.22
2023-01-11T05:26:40.974Z,100305.50
2023-01-11T05:29:10.109Z,100305.22
2023-01-11T05:31:37.619Z,100303.34
2023-01-11T05:34:06.872Z,100307.84
2023-01-11T05:36:34.121Z,100298.31
2023-01-11T05:39:00.910Z,100294.34
2023-01-11T05:41:27.947Z,100293.88
2023-01-11T05:44:15.086Z,100290.31
2023-01-11T05:46:42.921Z,100286.56
2023-01-11T05:49:10.526Z,100286.75
2023-01-11T05:51:38.231Z,100283.66
2023-01-11T05:54:06.673Z,100282.63
2023-01-11T05:56:33.437Z,100273.25
2023-01-11T05:58:59.929Z,100275.31
2023-01-11T06:01:26.525Z,100270.81
2023-01-11T06:03:53.015Z,100271.19
2023-01-11T06:06:20.987Z,100274.28
2023-01-11T06:08:47.699Z,100274.00
2023-01-11T06:11:14.884Z,100273.44
2023-01-11T06:13:41.683Z,100269.59
2023-01-11T06:16:12.222Z,100272.31
2023-01-11T06:18:43.894Z,100276.16
2023-01-11T06:21:10.934Z,100273.63
2023-01-11T06:23:40.634Z,100269.69
2023-01-11T06:26:10.785Z,100281.56
2023-01-11T06:28:37.961Z,100267.06
2023-01-11T06:31:05.003Z,100281.56
2023-01-11T06:33:32.083Z,100275.69
2023-01-11T06:35:59.067Z,100271.53
2023-01-11T06:38:26.226Z,100272.66
2023-01-11T06:40:58.067Z,100270.59
2023-01-11T06:43:25.430Z,100262.66
2023-01-11T06:45:52.308Z,100271.34
2023-01-11T06:48:20.195Z,100269.28
2023-01-11T06:50:50.595Z,100264.34
2023-01-11T06:53:17.465Z,100269.41
2023-01-11T06:55:44.099Z,100268.56
2023-01-11T06:58:10.900Z,100272.28
2023-01-11T07:00:38.547Z,100271.75
2023-01-11T07:03:06.052Z,100268.72
2023-01-11T07:05:33.691Z,100274.00
2023-01-11T07:08:00.301Z,100271.06
2023-01-11T07:10:27.040Z,100271.06
2023-01-11T07:12:53.629Z,100281.69
2023-01-11T07:15:22.185Z,100281.78
2023-01-11T07:17:54.062Z,100275.31
2023-01-11T07:20:21.007Z,100278.13
2023-01-11T07:22:47.521Z,100269.97
2023-01-11T07:25:14.230Z,100269.97
2023-01-11T07:27:40.675Z,100265.56
2023-01-11T07:30:09.787Z,100276.84
2023-01-11T07:32:36.707Z,100274.56
2023-01-11T07:35:03.401Z,100274.75
2023-01-11T07:37:32.728Z,100269.50
2023-01-11T07:39:59.533Z,100266.88
2023-01-11T07:42:44.915Z,100264.72
2023-01-11T07:45:11.508Z,100266.81
2023-01-11T07:47:37.975Z,100272.69
2023-01-11T07:50:04.909Z,100269.88
2023-01-11T07:52:31.407Z,100273.91
2023-01-11T07:55:02.293Z,100269.28
2023-01-11T07:57:29.850Z,100270.91
2023-01-11T07:59:56.442Z,100276.78
2023-01-11T08:02:23.105Z,100269.56
2023-01-11T08:04:50.420Z,100258.03
2023-01-11T08:07:16.993Z,100269.53
2023-01-11T08:09:43.478Z,100265.56
2023-01-11T08:12:28.761Z,100267.75
2023-01-11T08:14:55.222Z,100265.41
2023-01-11T08:17:21.737Z,100264.38
2023-01-11T08:19:48.298Z,100260.69
2023-01-11T08:22:14.806Z,100259.28
2023-01-11T08:24:41.302Z,100257.16
2023-01-11T08:27:07.961Z,100264.03
2023-01-11T08:29:34.669Z,100263.16
2023-01-11T08:32:01.638Z,100260.91
2023-01-11T08:34:29.258Z,100255.06
2023-01-11T08:37:01.990Z,100254.41
2023-01-11T08:39:31.884Z,100252.78
2023-01-11T08:41:59.223Z,100258.34
2023-01-11T08:44:33.714Z,100257.28
2023-01-11T08:47:00.885Z,100255.59
2023-01-11T08:49:27.673Z,100256.38
2023-01-11T08:51:54.154Z,100256.00
2023-01-11T08:54:20.869Z,100254.13
2023-01-11T08:56:47.676Z,100253.34
2023-01-11T08:59:14.221Z,100258.09
2023-01-11T09:01:40.958Z,100257.03
2023-01-11T09:04:23.166Z,100256.97
2023-01-11T09:06:50.538Z,100259.75
2023-01-11T09:09:17.064Z,100260.94
2023-01-11T09:11:56.701Z,100260.41
2023-01-11T09:14:25.312Z,100254.38
2023-01-11T09:16:52.701Z,100253.22
2023-01-11T09:19:22.682Z,100248.59
2023-01-11T09:21:49.997Z,100257.91
2023-01-11T09:24:16.622Z,100241.81
2023-01-11T09:26:43.688Z,100229.91
2023-01-11T09:29:11.056Z,100223.53
2023-01-11T09:31:37.738Z,100218.28
2023-01-11T09:34:04.944Z,100215.66
2023-01-11T09:36:33.282Z,100217.63
2023-01-11T09:39:02.112Z,100221.38
2023-01-11T09:41:37.900Z,100213.25
2023-01-11T09:44:16.094Z,100215.31
2023-01-11T09:46:49.306Z,100212.00
2023-01-11T09:49:43.304Z,100221.59
2023-01-11T09:52:36.158Z,100220.56
2023-01-11T09:55:02.879Z,100213.97
2023-01-11T09:57:32.549Z,100217.06
2023-01-11T10:00:14.697Z,100214.16
2023-01-11T10:02:44.216Z,100207.06
2023-01-11T10:05:18.862Z,100215.97
2023-01-11T10:18:29.108Z,100205.00
2023-01-11T10:18:38.956Z,100196.81
2023-01-11T10:20:40.906Z,100202.38
2023-01-11T10:23:28.763Z,100194.69
2023-01-11T10:25:58.716Z,100191.72
2023-01-11T10:28:35.708Z,100185.41
2023-01-11T10:31:29.943Z,100194.25
2023-01-11T10:34:16.221Z,100196.50
2023-01-11T10:37:03.539Z,100200.09
2023-01-11T10:39:55.813Z,100201.22
2023-01-11T10:42:29.632Z,100196.19
2023-01-11T10:45:13.869Z,100189.69
2023-01-11T10:48:07.002Z,100190.66
2023-01-11T10:50:38.688Z,100191.66
2023-01-11T10:53:17.064Z,100182.41
2023-01-11T10:56:15.550Z,100175.06
2023-01-11T10:58:54.031Z,100172.22
2023-01-11T11:01:24.572Z,100171.38
2023-01-11T11:04:20.851Z,100171.44
2023-01-11T11:06:50.327Z,100160.28
2023-01-11T11:09:35.332Z,100161.78
2023-01-11T11:12:19.637Z,100150.81
2023-01-11T11:15:11.093Z,100131.91
2023-01-11T11:17:40.724Z,100142.19
2023-01-11T11:20:22.117Z,100131.69
2023-01-11T11:22:52.973Z,100117.09
2023-01-11T11:25:29.796Z,100118.47
2023-01-11T11:28:06.322Z,100123.09
2023-01-11T11:30:38.287Z,100126.47
2023-01-11T11:33:24.384Z,100115.97
2023-01-11T11:36:05.328Z,100105.88
2023-01-11T11:38:34.569Z,100105.16
2023-01-11T11:41:05.474Z,100108.94
2023-01-11T11:43:34.006Z,100105.16
2023-01-11T11:46:18.746Z,100107.16
2023-01-11T11:49:13.188Z,100110.09
2023-01-11T11:51:42.226Z,100097.25
2023-01-11T11:54:30.974Z,100092.97
2023-01-11T11:57:42.923Z,100102.72
2023-01-11T12:00:31.252Z,100086.22
2023-01-11T12:03:22.310Z,100087.78
2023-01-11T12:05:54.391Z,100086.00
2023-01-11T12:08:22.405Z,100078.66
2023-01-11T12:10:53.456Z,100072.75
2023-01-11T12:13:31.899Z,100072.00
2023-01-11T12:16:01.386Z,100069.50
2023-01-11T12:18:38.599Z,100068.44
2023-01-11T12:21:21.762Z,100056.56
2023-01-11T12:23:55.165Z,100059.00
2023-01-11T12:26:36.896Z,100044.88
2023-01-11T12:29:06.474Z,100049.84
2023-01-11T12:31:50.391Z,100046.50
2023-01-11T12:34:34.458Z,100048.38
2023-01-11T12:37:31.033Z,100043.44
2023-01-11T12:40:28.627Z,100037.22
2023-01-11T12:43:04.170Z,100039.13
2023-01-11T12:46:07.198Z,100039.63
2023-01-11T12:48:49.804Z,100044.91
2023-01-11T12:51:18.738Z,100043.44
2023-01-11T12:54:00.671Z,100045.44
2023-01-11T12:56:39.793Z,100040.88
2023-01-11T12:59:22.193Z,100035.84
2023-01-11T13:01:56.680Z,100022.94
2023-01-11T13:04:41.334Z,100018.22
2023-01-11T13:07:31.027Z,100009.94
2023-01-11T13:10:13.772Z,100007.47
2023-01-11T13:12:49.421Z,99999.91
2023-01-11T13:15:42.272Z,99993.59
2023-01-11T13:18:23.461Z,99994.88
2023-01-11T13:21:02.568Z,99994.88
2023-01-11T13:23:40.433Z,99999.50
2023-01-11T13:26:21.127Z,99995.31
2023-01-11T13:28:51.979Z,99989.44
2023-01-11T13:31:20.135Z,99996.88
2023-01-11T13:33:50.602Z,99984.78
2023-01-11T13:36:23.778Z,99976.59
2023-01-11T13:39:13.718Z,99980.38
2023-01-11T13:41:50.976Z,99979.78
2023-01-11T13:44:42.404Z,99980.91
2023-01-11T13:47:23.238Z,99976.19
2023-01-11T13:49:58.870Z,99980.41
2023-01-11T13:52:46.157Z,99986.03
2023-01-11T13:55:20.876Z,99978.06
2023-01-11T13:58:05.703Z,99977.34
2023-01-11T14:00:38.339Z,99971.56
2023-01-11T14:03:26.780Z,99975.53
2023-01-11T14:06:07.372Z,99971.56
2023-01-11T14:08:43.480Z,99977.34
2023-01-11T14:11:42.192Z,99973.22
2023-01-11T14:14:27.101Z,99963.13
2023-01-11T14:17:31.257Z,99964.09
2023-01-11T14:20:03.425Z,99960.41
2023-01-11T14:22:40.272Z,99966.81
2023-01-11T14:26:02.667Z,99967.13
2023-01-11T14:29:12.046Z,99953.78
2023-01-11T14:31:56.614Z,99950.84
2023-01-11T14:34:32.888Z,99950.00
2023-01-11T14:37:01.996Z,99947.19
2023-01-11T14:39:44.001Z,99945.47
2023-01-11T14:42:32.207Z,99955.88
2023-01-11T14:45:19.477Z,99958.09
2023-01-11T14:48:03.890Z,99952.22
2023-01-11T14:50:42.093Z,99951.16
2023-01-11T14:53:11.421Z,99957.38
2023-01-11T14:55:45.134Z,99947.47
2023-01-11T14:58:30.465Z,99946.88
2023-01-11T15:00:57.060Z,99939.28
2023-01-11T15:03:23.717Z,99937.63
2023-01-11T15:05:52.194Z,99930.16
2023-01-11T15:08:23.803Z,99932.25
2023-01-11T15:10:57.570Z,99934.97
2023-01-11T15:13:26.850Z,99927.84
2023-01-11T15:16:38.979Z,99913.66
2023-01-11T15:19:11.195Z,99915.47
2023-01-11T15:21:42.089Z,99912.63
2023-01-11T15:24:25.522Z,99910.22
2023-01-11T15:26:52.583Z,99904.53
2023-01-11T15:29:30.385Z,99900.97
2023-01-11T15:32:06.781Z,99903.28
2023-01-11T15:34:39.227Z,99898.25
2023-01-11T15:37:10.995Z,99899.47
2023-01-11T15:39:54.505Z,99887.75
2023-01-11T15:42:26.776Z,99894.97
2023-01-11T15:44:56.659Z,99896.97
2023-01-11T15:47:53.834Z,99891.19
2023-01-11T15:50:52.057Z,99877.66
2023-01-11T15:53:41.763Z,99880.63
2023-01-11T15:56:37.513Z,99884.16
2023-01-11T15:59:20.204Z,99887.97
2023-01-11T16:02:08.020Z,99882.28
2023-01-11T16:04:39.735Z,99893.00
2023-01-11T16:07:20.588Z,99884.28
2023-01-11T16:10:02.378Z,99879.56
2023-01-11T16:12:45.077Z,99883.53
2023-01-11T16:15:23.524Z,99878.09
2023-01-11T16:17:50.758Z,99876.94
2023-01-11T16:20:23.812Z,99882.81
2023-01-11T16:22:57.302Z,99888.34
2023-01-11T16:25:28.028Z,99886.28
2023-01-11T16:27:56.405Z,99895.91
2023-01-11T16:30:26.629Z,99884.06
2023-01-11T16:32:53.442Z,99893.09
2023-01-11T16:35:25.400Z,99891.22
2023-01-11T16:37:56.731Z,99894.16
2023-01-11T16:40:30.585Z,99887.94
2023-01-11T16:43:05.989Z,99891.75
2023-01-11T16:45:47.574Z,99900.13
2023-01-11T16:48:22.778Z,99894.47
2023-01-11T16:51:14.217Z,99896.56
2023-01-11T16:53:42.276Z,99901.41
2023-01-11T16:56:23.611Z,99899.28
2023-01-11T16:59:15.183Z,99892.91
2023-01-11T17:02:25.424Z,99895.31
2023-01-11T17:04:54.215Z,99889.00
2023-01-11T17:07:22.103Z,99896.88
2023-01-11T17:09:48.673Z,99889.63
2023-01-11T17:12:22.061Z,99884.16
2023-01-11T17:15:33.506Z,99877.75
2023-01-11T17:18:05.127Z,99869.88
2023-01-11T17:20:32.093Z,99871.53
2023-01-11T17:22:59.312Z,99878.25
2023-01-11T17:25:41.080Z,99879.84
2023-01-11T17:28:17.646Z,99882.88
2023-01-11T17:30:45.677Z,99879.28
2023-01-11T17:33:26.652Z,99866.88
2023-01-11T17:35:54.240Z,99876.34
2023-01-11T17:38:23.068Z,99866.69
2023-01-11T17:40:51.217Z,99858.50
2023-01-11T17:43:43.921Z,99862.28
2023-01-11T17:46:25.987Z,99869.91
2023-01-11T17:48:56.116Z,99867.09
2023-01-11T17:51:33.787Z,99868.66
2023-01-11T17:54:00.914Z,99861.72
2023-01-11T17:56:33.273Z,99864.97
2023-01-11T17:59:30.101Z,99867.47
2023-01-11T18:02:15.106Z,99861.94
2023-01-11T18:04:41.914Z,99850.69
2023-01-11T18:07:15.880Z,99844.94
2023-01-11T18:09:46.139Z,99851.03
2023-01-11T18:12:21.075Z,99851.44
2023-01-11T18:14:53.120Z,99847.34
2023-01-11T18:17:30.662Z,99854.72
2023-01-11T18:19:57.670Z,99857.84
2023-01-11T18:22:40.659Z,99852.81
2023-01-11T18:25:24.871Z,99841.16
2023-01-11T18:27:52.086Z,99839.50
2023-01-11T18:30:30.941Z,99832.69
2023-01-11T18:33:02.352Z,99830.25
2023-01-11T18:35:30.737Z,99832.28
2023-01-11T18:37:57.188Z,99837.72
2023-01-11T18:40:23.686Z,99814.41
2023-01-11T18:42:52.432Z,99814.31
2023-01-11T18:45:20.372Z,99810.84
2023-01-11T18:47:46.860Z,99799.63
2023-01-11T18:50:13.473Z,99804.66
2023-01-11T18:52:40.307Z,99809.38
2023-01-11T18:55:06.948Z,99814.63
2023-01-11T18:57:33.755Z,99817.78
2023-01-11T19:00:00.445Z,99825.66
2023-01-11T19:02:28.238Z,99816.72
2023-01-11T19:04:56.267Z,99824.81
2023-01-11T19:07:24.430Z,99814.94
2023-01-11T19:09:50.990Z,99808.75
2023-01-11T19:12:18.071Z,99806.84
2023-01-11T19:14:45.052Z,99805.38
2023-01-11T19:17:12.111Z,99796.78
2023-01-11T19:19:38.686Z,99799.63
2023-01-11T19:22:05.590Z,99799.72
2023-01-11T19:24:32.509Z,99793.63
2023-01-11T19:26:59.221Z,99786.16
2023-01-11T19:29:26.117Z,99801.81
2023-01-11T19:31:53.147Z,99793.31
2023-01-11T19:34:20.261Z,99803.91
2023-01-11T19:36:48.628Z,99785.03
2023-01-11T19:39:15.436Z,99783.13
2023-01-11T19:42:01.887Z,99776.00
2023-01-11T19:44:37.184Z,99788.16
2023-01-11T19:47:12.764Z,99780.28
2023-01-11T19:49:40.739Z,99781.97
2023-01-11T19:52:14.328Z,99786.50
2023-01-11T19:54:42.592Z,99785.66
2023-01-11T19:57:10.955Z,99789.13
2023-01-11T19:59:37.600Z,99783.13
2023-01-11T20:02:05.575Z,99783.13
2023-01-11T20:04:32.376Z,99775.34
2023-01-11T20:06:59.013Z,99776.09
2023-01-11T20:09:25.748Z,99775.56
2023-01-11T20:11:53.285Z,99764.16
2023-01-11T20:14:22.902Z,99764.84
2023-01-11T20:16:49.683Z,99757.31
2023-01-11T20:19:16.278Z,99762.78
2023-01-11T20:21:43.523Z,99757.94
2023-01-11T20:24:12.594Z,99762.56
2023-01-11T20:26:39.418Z,99760.38
2023-01-11T20:29:06.622Z,99756.47
2023-01-11T20:31:35.390Z,99752.06
2023-01-11T20:34:13.667Z,99751.03
2023-01-11T20:36:40.111Z,99757.59
2023-01-11T20:39:07.210Z,99751.28
2023-01-11T20:41:49.802Z,99745.78
2023-01-11T20:44:23.997Z,99741.53
2023-01-11T20:46:52.048Z,99745.94
2023-01-11T20:49:20.867Z,99749.41
2023-01-11T20:51:47.390Z,99742.13
2023-01-11T20:54:14.180Z,99745.94
2023-01-11T20:56:45.048Z,99745.13
2023-01-11T20:59:13.541Z,99740.22
2023-01-11T21:01:40.351Z,99737.28
2023-01-11T21:04:08.602Z,99745.47
2023-01-11T21:06:37.683Z,99747.03
2023-01-11T21:09:05.156Z,99741.59
2023-01-11T21:11:32.245Z,99735.19
2023-01-11T21:14:00.417Z,99737.56
2023-01-11T21:16:29.258Z,99729.06
2023-01-11T21:18:58.066Z,99745.69
2023-01-11T21:21:25.270Z,99735.78
2023-01-11T21:23:57.083Z,99728.63
2023-01-11T21:26:24.846Z,99730.28
2023-01-11T21:29:03.205Z,99730.19
2023-01-11T21:31:34.211Z,99721.25
2023-01-11T21:34:01.311Z,99728.69
2023-01-11T21:36:30.391Z,99731.31
2023-01-11T21:38:58.207Z,99724.16
2023-01-11T21:41:45.740Z,99731.06
2023-01-11T21:44:13.280Z,99723.53
2023-01-11T21:46:44.211Z,99720.56
2023-01-11T21:49:13.557Z,99719.16
2023-01-11T21:51:40.812Z,99725.41
2023-01-11T21:54:09.488Z,99717.50
2023-01-11T21:56:36.179Z,99722.75
2023-01-11T21:59:03.000Z,99721.09
2023-01-11T22:01:29.931Z,99723.25
2023-01-11T22:03:57.080Z,99722.28
2023-01-11T22:06:23.661Z,99727.19
2023-01-11T22:08:50.401Z,99730.16
2023-01-11T22:11:17.765Z,99724.34
2023-01-11T22:13:44.645Z,99729.00
2023-01-11T22:16:14.444Z,99723.16
2023-01-11T22:18:41.952Z,99720.53
2023-01-11T22:21:13.603Z,99720.66
2023-01-11T22:23:40.811Z,99722.09
2023-01-11T22:26:12.245Z,99726.91
2023-01-11T22:28:57.640Z,99717.34
2023-01-11T22:31:25.901Z,99725.22
2023-01-11T22:33:52.377Z,99726.31
2023-01-11T22:36:19.588Z,99725.91
2023-01-11T22:38:47.113Z,99722.38
2023-01-11T22:41:14.903Z,99716.28
2023-01-11T22:43:43.030Z,99725.00
2023-01-11T22:46:14.118Z,99728.56
2023-01-11T22:48:41.101Z,99724.66
2023-01-11T22:51:08.459Z,99721.06
2023-01-11T22:53:43.590Z,99724.75
2023-01-11T22:56:11.796Z,99714.47
2023-01-11T22:58:38.468Z,99711.84
2023-01-11T23:01:12.159Z,99717.34
2023-01-11T23:03:39.525Z,99720.91
2023-01-11T23:06:07.013Z,99729.19
2023-01-11T23:08:37.769Z,99728.94
2023-01-11T23:11:04.421Z,99728.19
2023-01-11T23:13:49.965Z,99724.47
2023-01-11T23:16:16.571Z,99725.53
2023-01-11T23:18:43.133Z,99729.72
2023-01-11T23:21:09.687Z,99725.41
2023-01-11T23:23:38.009Z,99730.88
2023-01-11T23:26:05.963Z,99733.06
2023-01-11T23:28:33.519Z,99723.16
2023-01-11T23:31:00.335Z,99721.44
2023-01-11T23:33:26.834Z,99714.63
2023-01-11T23:35:58.022Z,99721.28
2023-01-11T23:38:25.075Z,99719.25
2023-01-11T23:41:10.727Z,99724.91
2023-01-11T23:43:40.257Z,99728.03
2023-01-11T23:46:25.632Z,99718.91
2023-01-11T23:48:52.173Z,99725.47
2023-01-11T23:51:21.212Z,99725.81
2023-01-11T23:53:47.831Z,99724.84
2023-01-11T23:56:15.981Z,99726.25
2023-01-11T23:58:42.436Z,99715.53
